Time;durP1;ratioP1;P1;durP2;ratioP2;P2;SDS_P1;SDS_P2;PMS_P1;PMS_P2;Temp;Humidity;BMP_temperature;BMP_pressure;BME280_temperature;BME280_humidity;BME280_pressure;Samples;Min_cycle;Max_cycle;Signal;HPM_P1;HPM_P2
2021/06/08 00:00:10;;;;;;;21.17;13.13;;;;;;;18.59;69.51;100070.59;5027858;28;20025;-24
2021/06/08 00:02:36;;;;;;;23.83;15.40;;;;;;;18.19;71.23;100083.84;5029136;28;20054;-24
2021/06/08 00:05:01;;;;;;;32.72;18.27;;;;;;;18.06;72.03;100089.75;5028993;28;20485;-24
2021/06/08 00:07:27;;;;;;;51.15;27.02;;;;;;;17.89;72.57;100079.22;5028920;28;20037;-24
2021/06/08 00:09:52;;;;;;;43.58;26.05;;;;;;;18.05;72.24;100080.84;5028908;28;20080;-24
2021/06/08 00:12:18;;;;;;;33.63;20.50;;;;;;;18.32;71.62;100074.38;5028627;28;20033;-24
2021/06/08 00:14:43;;;;;;;28.27;19.45;;;;;;;18.58;70.11;100055.47;5028945;28;20029;-24
2021/06/08 00:17:08;;;;;;;20.08;15.15;;;;;;;18.66;70.39;100066.53;5028773;28;20417;-24
2021/06/08 00:19:34;;;;;;;18.92;12.77;;;;;;;18.44;71.26;100053.31;5028622;28;20094;-24
2021/06/08 00:21:59;;;;;;;20.48;13.32;;;;;;;18.35;71.21;100043.34;5028532;28;20033;-24
2021/06/08 00:24:26;;;;;;;18.80;13.63;;;;;;;18.52;70.86;100053.88;5028344;28;20033;-25
2021/06/08 00:26:51;;;;;;;23.17;14.25;;;;;;;18.92;68.96;100055.72;5028610;28;20026;-25
2021/06/08 00:29:17;;;;;;;34.67;21.30;;;;;;;18.44;70.67;100058.72;5029111;28;20029;-24
2021/06/08 00:31:42;;;;;;;37.45;21.80;;;;;;;17.99;72.53;100054.94;5028787;28;20036;-24
2021/06/08 00:34:08;;;;;;;31.85;18.83;;;;;;;18.20;71.62;100060.34;5028543;28;20057;-24
2021/06/08 00:36:33;;;;;;;29.80;17.85;;;;;;;18.23;71.76;100066.03;5028241;28;20087;-24
2021/06/08 00:38:59;;;;;;;25.92;16.25;;;;;;;17.77;72.95;100038.16;5028087;28;20460;-24
2021/06/08 00:41:37;;;;;;;22.42;16.08;;;;;;;18.02;72.57;100057.13;5028213;28;20033;-24
2021/06/08 00:44:12;;;;;;;27.60;15.65;;;;;;;18.31;71.29;100043.09;5028396;28;20032;-24
2021/06/08 00:46:41;;;;;;;22.67;15.52;;;;;;;18.87;69.36;100044.91;5026930;28;20038;-24
2021/06/08 00:49:06;;;;;;;25.83;16.83;;;;;;;18.54;70.85;100051.72;5028073;28;20524;-24
2021/06/08 00:51:32;;;;;;;21.00;15.23;;;;;;;17.99;72.35;100041.44;5028080;28;20049;-24
2021/06/08 00:54:03;;;;;;;22.23;14.75;;;;;;;17.92;72.16;100035.53;5028121;28;20053;-24
2021/06/08 00:56:29;;;;;;;27.63;16.38;;;;;;;18.19;72.24;100056.03;5027935;28;20044;-24
2021/06/08 00:58:54;;;;;;;21.05;13.73;;;;;;;18.51;70.92;100057.63;5026709;28;20034;-24
2021/06/08 01:01:19;;;;;;;23.33;13.10;;;;;;;18.11;71.71;100033.09;5027850;28;20453;-24
2021/06/08 01:03:45;;;;;;;18.65;12.98;;;;;;;18.15;71.76;100050.38;5027756;28;20163;-24
2021/06/08 01:06:10;;;;;;;20.13;12.80;;;;;;;18.57;70.33;100037.66;5028061;28;20037;-24
2021/06/08 01:08:36;;;;;;;20.45;13.10;;;;;;;18.01;71.89;100031.19;5026612;28;20040;-24
2021/06/08 01:11:01;;;;;;;17.17;11.73;;;;;;;17.78;73.56;100042.50;5027947;28;20547;-24
2021/06/08 01:13:29;;;;;;;18.60;12.30;;;;;;;17.81;73.67;100044.63;5027721;28;20065;-24
2021/06/08 01:15:54;;;;;;;19.83;12.90;;;;;;;17.67;73.79;100038.94;5027531;28;20041;-24
2021/06/08 01:18:20;;;;;;;21.60;13.57;;;;;;;17.96;72.82;100041.16;5027672;28;20045;-25
2021/06/08 01:20:45;;;;;;;21.50;14.95;;;;;;;17.69;73.66;100036.78;5027621;28;20524;-25
2021/06/08 01:23:11;;;;;;;28.35;15.65;;;;;;;17.60;73.57;100022.22;5028046;28;20068;-24
2021/06/08 01:25:36;;;;;;;24.92;15.13;;;;;;;17.52;74.26;100039.72;5026666;28;20853;-24
2021/06/08 01:28:02;;;;;;;26.17;17.08;;;;;;;17.59;73.76;100037.59;5027730;28;20037;-24
2021/06/08 01:30:27;;;;;;;26.80;15.45;;;;;;;17.56;74.22;100043.50;5026129;28;20033;-24
2021/06/08 01:32:53;;;;;;;21.80;15.27;;;;;;;17.23;74.44;99996.25;5009709;28;20037;-24
2021/06/08 01:35:19;;;;;;;25.02;15.38;;;;;;;17.35;74.69;100031.06;5027318;28;20029;-24
2021/06/08 01:37:44;;;;;;;21.25;15.43;;;;;;;17.75;73.23;100024.13;5027661;28;20470;-24
2021/06/08 01:40:11;;;;;;;24.25;15.43;;;;;;;18.50;71.09;100037.13;5026530;28;20017;-24
2021/06/08 01:42:37;;;;;;;32.55;16.92;;;;;;;18.27;71.66;100036.63;5009966;28;20044;-24
2021/06/08 01:45:03;;;;;;;36.10;23.27;;;;;;;18.55;70.21;100037.09;5026647;28;20029;-24
2021/06/08 01:47:28;;;;;;;38.95;23.17;;;;;;;18.58;70.08;100040.09;5027240;28;20068;-24
2021/06/08 01:49:54;;;;;;;40.35;21.40;;;;;;;18.10;71.84;100030.66;5027336;28;20029;-24
2021/06/08 01:52:29;;;;;;;32.92;18.40;;;;;;;18.26;71.23;100040.38;5027004;28;20065;-24
2021/06/08 01:54:57;;;;;;;30.85;20.42;;;;;;;18.43;70.66;100034.72;5029677;28;20026;-24
2021/06/08 01:57:29;;;;;;;28.20;16.13;;;;;;;18.22;71.66;100032.00;5031341;28;20033;-24
2021/06/08 02:00:05;;;;;;;69.68;17.60;;;;;;;18.19;70.85;100031.75;5030505;28;20212;-25
2021/06/08 02:03:08;;;;;;;26.95;13.82;;;;;;;18.61;69.80;100038.72;5031366;28;20057;-24
2021/06/08 02:05:50;;;;;;;19.30;12.82;;;;;;;17.93;72.49;100036.31;5031495;28;20029;-26
2021/06/08 02:08:21;;;;;;;19.98;13.82;;;;;;;17.74;72.85;100044.91;5029419;28;20560;-24
2021/06/08 02:10:53;;;;;;;20.73;13.10;;;;;;;17.57;73.29;100012.78;5030282;28;20136;-26
2021/06/08 02:13:26;;;;;;;20.73;13.48;;;;;;;17.54;73.59;100034.88;5029874;28;20037;-24
2021/06/08 02:16:16;;;;;;;32.05;14.68;;;;;;;17.32;74.36;100035.06;5013710;28;20033;-24
2021/06/08 02:18:42;;;;;;;32.67;17.17;;;;;;;17.32;74.40;100032.38;5032942;28;20525;-24
2021/06/08 02:21:09;;;;;;;25.35;17.77;;;;;;;18.03;71.89;100037.13;5013097;28;20034;-24
2021/06/08 02:23:35;;;;;;;30.55;18.60;;;;;;;18.15;70.97;100023.38;5029719;28;20076;-24
2021/06/08 02:26:00;;;;;;;27.23;16.60;;;;;;;17.81;72.86;100036.53;5029585;28;20056;-24
2021/06/08 02:28:29;;;;;;;26.92;16.17;;;;;;;17.97;72.62;100040.91;5012814;28;20040;-24
2021/06/08 02:30:54;;;;;;;28.75;16.55;;;;;;;18.00;71.82;100031.47;5029470;28;20099;-24
2021/06/08 02:33:20;;;;;;;27.40;15.65;;;;;;;18.15;70.88;100028.78;5030447;28;20104;-24
2021/06/08 02:35:45;;;;;;;27.20;15.82;;;;;;;18.36;70.15;100026.06;5013099;28;20547;-24
2021/06/08 02:38:11;;;;;;;37.13;19.80;;;;;;;18.04;71.88;100049.56;5029128;28;20037;-25
2021/06/08 02:40:37;;;;;;;34.47;21.42;;;;;;;18.00;71.38;100028.75;5030535;28;20022;-24
2021/06/08 02:43:03;;;;;;;33.65;18.98;;;;;;;17.47;73.95;100039.72;5012825;28;20033;-24
2021/06/08 02:45:28;;;;;;;31.30;17.90;;;;;;;18.00;72.18;100044.94;5029165;28;20029;-24
2021/06/08 02:47:54;;;;;;;23.27;15.82;;;;;;;18.03;72.09;100041.72;5029123;28;20029;-24
2021/06/08 02:50:22;;;;;;;20.30;13.93;;;;;;;17.59;73.10;100032.19;5012687;28;20025;-24
2021/06/08 02:52:53;;;;;;;24.13;13.35;;;;;;;17.48;73.85;100035.94;5012688;28;20068;-25
2021/06/08 02:55:19;;;;;;;18.05;12.70;;;;;;;17.88;72.65;100037.13;5029318;28;20029;-24
2021/06/08 02:57:45;;;;;;;17.65;12.60;;;;;;;18.24;71.00;100042.53;5029029;28;20505;-24
2021/06/08 03:00:10;;;;;;;18.23;12.70;;;;;;;18.06;71.30;100052.81;5028546;28;20040;-25
2021/06/08 03:02:38;;;;;;;20.25;11.88;;;;;;;17.73;72.50;100040.56;5028805;28;20069;-25
2021/06/08 03:05:05;;;;;;;;;;;;;;;17.57;72.98;100050.53;5012981;28;20406;-24
2021/06/08 03:07:30;;;;;;;29.83;15.45;;;;;;;17.13;74.15;100050.09;5029031;28;19966;-26
2021/06/08 03:10:06;;;;;;;39.00;19.90;;;;;;;17.49;73.56;100051.03;5012676;28;20037;-24
2021/06/08 03:12:33;;;;;;;40.40;20.63;;;;;;;17.47;73.22;100039.72;5029722;28;20029;-24
2021/06/08 03:14:59;;;;;;;37.10;19.35;;;;;;;17.76;72.15;100053.53;5028442;28;20033;-24
2021/06/08 03:17:25;;;;;;;34.95;17.02;;;;;;;17.72;72.72;100047.06;5028424;28;20113;-24
2021/06/08 03:19:50;;;;;;;27.17;16.38;;;;;;;18.14;71.24;100058.72;5012228;28;20030;-24
2021/06/08 03:22:17;;;;;;;23.73;15.15;;;;;;;17.73;72.69;100056.75;5011855;28;20036;-25
2021/06/08 03:24:45;;;;;;;71.00;41.70;;;;;;;17.48;73.42;100057.50;5028461;28;20029;-24
2021/06/08 03:27:11;;;;;;;89.90;53.30;;;;;;;17.41;73.68;100057.75;5028474;28;20044;-24
2021/06/08 03:29:36;;;;;;;99.70;54.08;;;;;;;17.56;73.12;100054.28;5011825;28;20029;-25
2021/06/08 03:32:02;;;;;;;106.38;56.30;;;;;;;17.68;72.58;100051.38;5011737;28;20474;-25
2021/06/08 03:34:28;;;;;;;81.97;43.10;;;;;;;17.86;71.59;100058.97;5028264;28;20025;-24
2021/06/08 03:36:53;;;;;;;75.88;38.05;;;;;;;18.18;71.42;100062.50;5012012;28;20486;-24
2021/06/08 03:39:20;;;;;;;45.03;26.95;;;;;;;18.24;71.35;100053.34;5028466;28;20026;-23
2021/06/08 03:41:46;;;;;;;39.35;23.10;;;;;;;18.23;70.53;100041.72;5028367;28;20045;-24
2021/06/08 03:44:12;;;;;;;36.17;23.77;;;;;;;18.46;70.15;100047.66;5027857;28;20486;-24
2021/06/08 03:46:38;;;;;;;69.07;44.70;;;;;;;18.65;69.63;100064.09;5028125;28;20073;-24
2021/06/08 03:49:03;;;;;;;69.85;43.78;;;;;;;18.50;70.47;100058.72;5027793;28;20072;-24
2021/06/08 03:51:29;;;;;;;35.45;23.77;;;;;;;18.34;70.82;100064.13;5028138;28;20052;-24
2021/06/08 03:53:54;;;;;;;30.20;21.10;;;;;;;17.83;72.40;100056.81;5029146;28;20053;-24
2021/06/08 03:56:20;;;;;;;24.48;16.38;;;;;;;18.28;71.55;100074.13;5029004;28;20030;-24
2021/06/08 03:58:45;;;;;;;18.85;13.07;;;;;;;18.21;71.35;100075.47;5011522;28;20042;-24
2021/06/08 04:01:11;;;;;;;18.80;11.82;;;;;;;18.12;71.67;100071.69;4995019;28;20025;-24
2021/06/08 04:03:36;;;;;;;18.58;13.00;;;;;;;18.28;71.05;100059.81;5027840;28;20044;-24
2021/06/08 04:06:02;;;;;;;17.42;12.13;;;;;;;18.34;71.16;100069.53;5011358;28;20461;-24
2021/06/08 04:08:28;;;;;;;16.00;11.52;;;;;;;17.90;72.05;100063.81;5028690;28;20033;-24
2021/06/08 04:10:54;;;;;;;19.15;11.25;;;;;;;17.95;73.07;100074.63;5027511;28;20036;-24
2021/06/08 04:13:20;;;;;;;17.48;12.18;;;;;;;18.30;71.06;100079.25;5028690;28;20033;-25
2021/06/08 04:15:45;;;;;;;20.50;12.25;;;;;;;18.35;70.15;100065.75;5027469;28;20040;-25
2021/06/08 04:18:11;;;;;;;15.82;11.80;;;;;;;18.10;70.79;100068.44;5010625;28;20044;-25
2021/06/08 04:20:37;;;;;;;18.13;12.68;;;;;;;18.15;71.45;100081.97;5027893;28;20837;-24
2021/06/08 04:23:02;;;;;;;29.25;19.42;;;;;;;18.33;70.88;100092.22;5028448;28;20045;-24
2021/06/08 04:25:29;;;;;;;41.50;29.48;;;;;;;18.06;71.81;100087.88;5028445;28;20034;-24
2021/06/08 04:27:54;;;;;;;35.97;19.70;;;;;;;18.21;70.93;100080.88;5028437;28;20045;-24
2021/06/08 04:30:20;;;;;;;18.52;13.38;;;;;;;17.99;71.82;100090.03;5028225;28;20108;-24
2021/06/08 04:32:46;;;;;;;16.05;12.60;;;;;;;17.95;72.41;100088.94;5028347;28;20037;-24
2021/06/08 04:35:12;;;;;;;20.85;13.13;;;;;;;17.95;73.12;100080.84;5028369;28;20414;-24
2021/06/08 04:37:38;;;;;;;17.45;13.85;;;;;;;18.28;72.30;100076.00;5028219;28;20033;-24
2021/06/08 04:40:04;;;;;;;20.48;14.48;;;;;;;18.40;71.01;100100.84;5026975;28;20036;-24
2021/06/08 04:42:30;;;;;;;20.23;13.60;;;;;;;18.41;71.50;100097.09;5027882;28;20048;-24
2021/06/08 04:44:55;;;;;;;22.60;16.70;;;;;;;18.44;72.18;100099.22;5028035;28;20037;-24
2021/06/08 04:47:21;;;;;;;24.25;18.25;;;;;;;18.50;72.40;100099.25;5028165;28;20040;-24
2021/06/08 04:49:47;;;;;;;27.00;19.52;;;;;;;18.38;74.15;100103.00;5027093;28;20486;-24
2021/06/08 04:52:13;;;;;;;27.65;20.60;;;;;;;18.55;73.29;100110.03;5026345;28;20079;-24
2021/06/08 04:54:39;;;;;;;26.70;20.90;;;;;;;18.39;73.64;100104.63;5028080;28;20022;-24
2021/06/08 04:57:05;;;;;;;28.63;21.10;;;;;;;18.38;73.73;100103.00;5027949;28;20409;-25
2021/06/08 04:59:42;;;;;;;31.00;21.73;;;;;;;18.72;73.53;100110.56;5026740;28;20022;-25
2021/06/08 05:02:09;;;;;;;30.33;22.98;;;;;;;18.74;73.14;100104.91;5011468;28;20041;-24
2021/06/08 05:04:37;;;;;;;29.65;21.48;;;;;;;18.63;73.47;100099.50;5027691;28;20099;-24
2021/06/08 05:07:03;;;;;;;;;;;;;;;18.83;73.29;100098.69;5027024;28;20026;-24
2021/06/08 05:09:31;;;;;;;29.48;21.40;;;;;;;18.87;72.83;100105.16;5026395;28;19917;-24
2021/06/08 05:12:00;;;;;;;33.08;23.17;;;;;;;19.24;71.98;100092.38;5026470;28;20095;-24
2021/06/08 05:14:26;;;;;;;28.58;20.98;;;;;;;19.26;71.55;100101.81;5026348;28;20551;-24
2021/06/08 05:16:52;;;;;;;29.58;20.95;;;;;;;19.31;71.15;100102.88;5027514;28;20037;-26
2021/06/08 05:19:18;;;;;;;28.17;20.10;;;;;;;19.34;70.71;100103.16;5026269;28;20513;-26
2021/06/08 05:21:44;;;;;;;30.13;22.45;;;;;;;19.49;70.76;100091.44;5026278;28;20112;-26
2021/06/08 05:24:13;;;;;;;28.17;22.20;;;;;;;19.81;69.54;100099.16;5027308;28;20045;-26
2021/06/08 05:26:42;;;;;;;31.30;22.67;;;;;;;19.66;71.38;100097.31;5027738;28;20056;-26
2021/06/08 05:29:08;;;;;;;31.27;24.05;;;;;;;19.66;72.20;100110.06;5027604;28;20040;-26
2021/06/08 05:31:33;;;;;;;26.70;22.33;;;;;;;19.62;71.86;100093.56;5027369;28;20021;-26
2021/06/08 05:33:59;;;;;;;29.92;20.58;;;;;;;19.65;70.47;100095.69;5027336;28;20443;-26
2021/06/08 05:36:32;;;;;;;24.58;18.58;;;;;;;19.91;69.88;100105.63;5027216;28;20029;-26
2021/06/08 05:38:57;;;;;;;23.08;18.58;;;;;;;20.10;69.24;100106.56;5027333;28;20037;-26
2021/06/08 05:41:23;;;;;;;22.73;16.70;;;;;;;20.61;67.82;100114.31;5027375;28;20032;-26
2021/06/08 05:43:48;;;;;;;23.83;16.05;;;;;;;20.34;67.80;100117.50;5027391;28;20474;-26
2021/06/08 05:46:14;;;;;;;18.42;14.95;;;;;;;20.67;66.65;100112.38;5027196;28;20437;-26
2021/06/08 05:48:39;;;;;;;17.13;15.10;;;;;;;20.57;66.98;100112.44;5027358;28;20040;-24
2021/06/08 05:51:05;;;;;;;19.45;15.40;;;;;;;20.86;66.42;100112.47;5027328;28;20034;-24
2021/06/08 05:53:31;;;;;;;21.65;15.77;;;;;;;20.63;66.27;100114.84;5027223;28;20060;-24
2021/06/08 05:55:57;;;;;;;20.50;15.68;;;;;;;20.84;66.10;100112.78;5027405;28;20021;-24
2021/06/08 05:58:27;;;;;;;20.52;17.27;;;;;;;20.53;66.55;100119.53;5027205;28;20505;-24
2021/06/08 06:00:53;;;;;;;17.00;15.18;;;;;;;20.63;66.55;100119.47;5027026;28;20033;-24
2021/06/08 06:03:19;;;;;;;20.08;16.60;;;;;;;20.80;66.25;100105.47;5026996;28;20111;-24
2021/06/08 06:05:45;;;;;;;23.02;17.55;;;;;;;20.85;65.77;100114.38;5026931;28;20183;-24
2021/06/08 06:08:10;;;;;;;17.27;15.43;;;;;;;21.18;65.60;100116.47;5009294;28;20482;-25
2021/06/08 06:10:36;;;;;;;17.27;14.93;;;;;;;21.24;64.82;100102.56;5009456;28;20022;-24
2021/06/08 06:13:01;;;;;;;18.65;14.25;;;;;;;21.67;63.90;100112.66;5009289;28;20037;-24
2021/06/08 06:15:28;;;;;;;32.33;26.38;;;;;;;21.96;63.19;100115.25;5009316;28;20087;-24
2021/06/08 06:17:53;;;;;;;17.67;15.20;;;;;;;21.92;63.96;100118.84;5027539;28;20087;-25
2021/06/08 06:20:18;;;;;;;17.65;14.23;;;;;;;22.31;61.87;100115.81;5026944;28;20026;-24
2021/06/08 06:22:44;;;;;;;16.92;13.45;;;;;;;22.00;63.11;100116.25;5009070;28;20068;-24
2021/06/08 06:25:11;;;;;;;15.25;13.55;;;;;;;21.89;63.22;100119.44;5025558;28;20041;-24
2021/06/08 06:27:38;;;;;;;16.63;13.07;;;;;;;22.33;61.67;100110.94;5027001;28;20387;-24
2021/06/08 06:30:05;;;;;;;19.73;14.40;;;;;;;22.48;62.23;100115.31;5027077;28;20049;-24
2021/06/08 06:32:30;;;;;;;16.30;13.32;;;;;;;21.93;62.78;100104.97;5026648;28;20025;-24
2021/06/08 06:34:55;;;;;;;19.40;13.82;;;;;;;21.94;62.79;100113.91;5025625;28;20033;-24
2021/06/08 06:37:23;;;;;;;15.23;13.15;;;;;;;21.81;62.62;100108.13;5025819;28;20033;-24
2021/06/08 06:39:48;;;;;;;17.80;13.88;;;;;;;22.01;62.54;100115.19;5026192;28;20029;-24
2021/06/08 06:42:14;;;;;;;18.00;14.15;;;;;;;21.95;63.74;100105.50;5029020;28;20037;-24
2021/06/08 06:44:40;;;;;;;22.27;16.50;;;;;;;22.72;61.57;100109.75;5029373;28;20037;-24
2021/06/08 06:47:06;;;;;;;18.77;14.18;;;;;;;22.86;59.68;100088.00;5012764;28;20047;-24
2021/06/08 06:49:31;;;;;;;17.42;13.38;;;;;;;22.83;60.15;100105.72;5030383;28;20026;-24
2021/06/08 06:51:57;;;;;;;19.85;14.05;;;;;;;23.09;59.18;100086.25;5012086;28;20433;-24
2021/06/08 06:54:23;;;;;;;17.85;13.13;;;;;;;23.18;59.19;100103.47;5030386;28;20460;-24
2021/06/08 06:57:04;;;;;;;17.52;13.15;;;;;;;23.02;58.86;100102.13;5007646;28;20046;-24
2021/06/08 06:59:30;;;;;;;14.95;13.35;;;;;;;23.12;59.06;100109.31;5030512;28;20818;-24
2021/06/08 07:01:55;;;;;;;14.27;12.65;;;;;;;23.04;58.11;100097.19;5012336;28;20124;-24
2021/06/08 07:04:22;;;;;;;18.90;14.07;;;;;;;23.14;58.50;100083.41;5029718;28;20387;-24
2021/06/08 07:06:47;;;;;;;15.30;12.27;;;;;;;23.01;57.65;100085.03;5012640;28;20040;-24
2021/06/08 07:09:13;;;;;;;15.18;13.48;;;;;;;23.58;56.90;100089.31;5028809;28;20029;-24
2021/06/08 07:11:38;;;;;;;17.23;12.68;;;;;;;23.87;55.95;100091.72;5029938;28;20040;-24
2021/06/08 07:14:04;;;;;;;14.80;12.63;;;;;;;23.82;55.98;100091.81;5028636;28;20029;-24
2021/06/08 07:16:29;;;;;;;13.20;11.80;;;;;;;23.89;56.06;100092.19;5028330;28;20045;-24
2021/06/08 07:18:55;;;;;;;13.75;12.25;;;;;;;24.04;56.66;100093.75;5028417;28;20034;-24
2021/06/08 07:21:22;;;;;;;12.95;11.52;;;;;;;24.14;55.49;100090.78;5028598;28;20033;-24
2021/06/08 07:23:50;;;;;;;13.55;11.38;;;;;;;23.93;57.70;100087.75;5028534;28;20087;-24
2021/06/08 07:26:17;;;;;;;13.82;12.07;;;;;;;23.81;56.52;100079.31;5028262;28;20033;-24
2021/06/08 07:28:43;;;;;;;12.63;11.37;;;;;;;24.16;56.35;100074.16;5029668;28;20152;-24
2021/06/08 07:31:10;;;;;;;12.88;11.57;;;;;;;24.34;55.81;100078.59;5028582;28;20803;-24
2021/06/08 07:33:47;;;;;;;15.93;12.25;;;;;;;24.28;55.99;100088.00;5011785;28;20037;-24
2021/06/08 07:36:28;;;;;;;15.15;12.00;;;;;;;24.51;54.57;100072.47;5028279;28;20033;-24
2021/06/08 07:39:21;;;;;;;13.82;11.52;;;;;;;24.40;55.00;100080.06;5029405;28;20111;-24
2021/06/08 07:42:18;;;;;;;13.20;11.70;;;;;;;24.94;55.12;100082.78;5024459;28;20038;-24
2021/06/08 07:45:04;;;;;;;13.65;12.15;;;;;;;24.98;53.79;100077.50;5020676;28;20044;-24
2021/06/08 07:47:33;;;;;;;13.10;11.77;;;;;;;24.74;53.77;100095.03;5028257;28;20045;-24
2021/06/08 07:50:00;;;;;;;14.57;11.57;;;;;;;25.02;53.80;100079.28;5011821;28;20034;-24
2021/06/08 07:52:26;;;;;;;13.25;11.15;;;;;;;24.81;53.26;100079.03;5010137;28;20456;-24
2021/06/08 07:54:51;;;;;;;12.80;11.25;;;;;;;24.60;52.24;100072.50;5028113;28;20061;-26
2021/06/08 07:57:20;;;;;;;13.13;11.38;;;;;;;24.55;52.94;100064.47;5029369;28;20048;-25
2021/06/08 07:59:46;;;;;;;16.48;12.38;;;;;;;24.86;54.22;100081.63;5028839;28;20120;-24
2021/06/08 08:02:12;;;;;;;10.82;9.50;;;;;;;24.50;51.54;100067.31;5028908;28;20168;-24
2021/06/08 08:04:46;;;;;;;20.83;12.77;;;;;;;24.70;52.00;100091.31;5027786;28;20037;-24
2021/06/08 08:07:12;;;;;;;10.95;9.50;;;;;;;24.56;51.03;100079.69;5027741;28;20022;-26
2021/06/08 08:09:37;;;;;;;11.70;9.93;;;;;;;24.51;52.08;100082.56;5011267;28;20401;-24
2021/06/08 08:12:03;;;;;;;12.48;10.52;;;;;;;24.36;52.37;100078.28;5011090;28;20036;-24
2021/06/08 08:14:29;;;;;;;11.48;9.48;;;;;;;24.76;50.01;100076.44;5010796;28;20056;-24
2021/06/08 08:16:56;;;;;;;11.40;9.70;;;;;;;25.15;48.80;100071.28;5028468;28;20482;-25
2021/06/08 08:19:21;;;;;;;10.60;9.50;;;;;;;25.33;48.80;100078.44;5028403;28;20041;-25
2021/06/08 08:21:48;;;;;;;10.77;8.25;;;;;;;25.44;47.31;100048.94;5028897;28;20036;-25
2021/06/08 08:24:13;;;;;;;9.82;8.82;;;;;;;25.20;47.82;100073.91;5028768;28;20152;-24
2021/06/08 08:26:39;;;;;;;10.57;9.05;;;;;;;25.25;48.13;100066.41;5028689;28;20041;-24
2021/06/08 08:29:05;;;;;;;10.48;7.88;;;;;;;25.61;45.71;100072.72;5028308;28;20088;-24
2021/06/08 08:31:31;;;;;;;14.70;9.00;;;;;;;26.42;46.80;100069.34;5028303;28;20025;-24
2021/06/08 08:33:57;;;;;;;11.68;9.82;;;;;;;26.37;46.15;100071.44;5028016;28;20551;-24
2021/06/08 08:36:24;;;;;;;11.63;7.70;;;;;;;25.98;45.12;100070.50;5028179;28;20033;-24
2021/06/08 08:38:49;;;;;;;8.15;7.28;;;;;;;25.53;47.97;100076.25;5027389;28;20064;-26
2021/06/08 08:41:15;;;;;;;9.60;7.53;;;;;;;26.24;47.72;100063.09;5028216;28;20474;-23
2021/06/08 08:43:48;;;;;;;9.68;7.18;;;;;;;26.25;45.59;100063.88;5028175;28;20091;-23
2021/06/08 08:46:13;;;;;;;9.57;7.63;;;;;;;26.68;44.52;100065.75;5027940;28;20090;-24
2021/06/08 08:48:42;;;;;;;8.85;7.63;;;;;;;26.97;43.81;100054.06;5028448;28;20040;-23
2021/06/08 08:51:10;;;;;;;11.45;7.25;;;;;;;26.94;42.93;100062.91;5028346;28;20064;-23
2021/06/08 08:53:36;;;;;;;;;;;;;;;27.03;41.51;100063.69;5028388;28;20049;-23
2021/06/08 08:56:01;;;;;;;15.68;11.50;;;;;;;27.35;41.74;100041.47;5028294;28;19924;-23
2021/06/08 08:58:29;;;;;;;7.82;7.00;;;;;;;27.20;41.66;100040.88;5026555;28;20053;-25
2021/06/08 09:00:56;;;;;;;9.38;7.43;;;;;;;27.39;44.20;100050.63;5026503;28;20029;-24
2021/06/08 09:03:22;;;;;;;10.00;7.15;;;;;;;27.70;42.60;100036.50;5027811;28;20029;-23
2021/06/08 09:05:48;;;;;;;10.80;7.43;;;;;;;28.27;40.51;100040.53;5027994;28;20060;-24
2021/06/08 09:08:13;;;;;;;7.55;6.60;;;;;;;28.57;41.04;100027.50;5027641;28;20574;-23
2021/06/08 09:10:39;;;;;;;7.70;6.70;;;;;;;28.79;39.78;100039.97;5026698;28;20044;-23
2021/06/08 09:13:04;;;;;;;7.57;6.07;;;;;;;28.47;39.46;100038.09;5027844;28;20094;-24
2021/06/08 09:15:30;;;;;;;8.77;6.13;;;;;;;28.83;38.53;100038.16;5027575;28;20034;-24
2021/06/08 09:17:57;;;;;;;10.40;6.60;;;;;;;28.26;39.98;100027.97;5027939;28;20112;-24
2021/06/08 09:20:22;;;;;;;9.27;6.72;;;;;;;28.02;43.81;100034.19;5027468;28;20033;-23
2021/06/08 09:22:49;;;;;;;10.32;6.43;;;;;;;27.51;42.11;100026.03;5027828;28;20036;-23
2021/06/08 09:25:33;;;;;;;8.30;6.70;;;;;;;28.12;39.71;100027.50;5027698;28;20084;-23
2021/06/08 09:28:24;;;;;;;7.78;6.40;;;;;;;27.36;42.00;100018.41;5026384;28;20034;-24
2021/06/08 09:30:53;;;;;;;7.03;6.30;;;;;;;27.31;41.58;100004.94;5027691;28;20037;-24
2021/06/08 09:33:20;;;;;;;9.02;6.85;;;;;;;27.24;43.01;99995.31;5028004;28;20033;-23
2021/06/08 09:35:53;;;;;;;8.25;7.00;;;;;;;27.19;40.71;100003.66;5027592;28;20073;-24
2021/06/08 09:38:20;;;;;;;9.15;7.03;;;;;;;27.73;42.49;99997.50;5027190;28;20041;-23
2021/06/08 09:40:45;;;;;;;8.32;7.03;;;;;;;27.67;41.75;100007.06;5027420;28;20727;-24
2021/06/08 09:43:12;;;;;;;8.73;6.88;;;;;;;27.16;40.55;99992.59;5027592;28;20032;-23
2021/06/08 09:45:45;;;;;;;8.93;6.90;;;;;;;27.37;41.35;99998.13;5027535;28;20115;-24
2021/06/08 09:48:10;;;;;;;10.95;6.82;;;;;;;27.58;41.15;99993.44;5027209;28;20478;-24
2021/06/08 09:50:54;;;;;;;8.20;6.13;;;;;;;27.62;40.59;99993.56;5027285;28;20029;-23
2021/06/08 09:53:29;;;;;;;8.80;6.25;;;;;;;27.89;40.14;99991.41;5009744;28;20099;-24
2021/06/08 09:56:08;;;;;;;7.57;6.18;;;;;;;27.91;41.42;99979.00;5027654;28;20040;-23
2021/06/08 09:58:34;;;;;;;10.98;6.55;;;;;;;27.91;41.39;99973.50;5026064;28;20567;-23
2021/06/08 10:01:08;;;;;;;6.80;6.10;;;;;;;27.67;41.14;99984.34;5027120;28;20412;-23
2021/06/08 10:04:01;;;;;;;6.93;5.82;;;;;;;27.89;40.57;99981.28;5027201;28;20477;-23
2021/06/08 10:06:37;;;;;;;8.48;5.97;;;;;;;28.20;39.51;99947.09;5027601;28;20045;-24
2021/06/08 10:09:09;;;;;;;8.07;6.47;;;;;;;28.55;40.60;99979.59;5027524;28;20037;-23
2021/06/08 10:11:35;;;;;;;7.28;6.15;;;;;;;28.45;39.29;99969.84;5027113;28;20038;-23
2021/06/08 10:14:12;;;;;;;6.43;5.63;;;;;;;29.32;37.61;99974.19;5027225;28;20413;-23
2021/06/08 10:16:37;;;;;;;7.40;6.13;;;;;;;29.08;37.40;99975.00;5030583;28;20410;-24
2021/06/08 10:19:04;;;;;;;9.40;5.95;;;;;;;29.17;38.05;99969.41;5031424;28;20036;-24
2021/06/08 10:21:34;;;;;;;7.07;5.83;;;;;;;29.09;37.60;99965.59;5031223;28;20149;-24
2021/06/08 10:24:22;;;;;;;8.18;5.97;;;;;;;29.29;38.26;99968.56;5029539;28;20874;-23
2021/06/08 10:26:51;;;;;;;7.07;5.95;;;;;;;29.57;37.26;99955.66;5031267;28;20025;-23
2021/06/08 10:29:17;;;;;;;7.53;5.82;;;;;;;29.19;37.43;99959.66;5030700;28;20382;-24
2021/06/08 10:31:42;;;;;;;7.50;5.70;;;;;;;29.25;35.46;99963.75;5030930;28;20028;-24
2021/06/08 10:34:08;;;;;;;7.40;6.35;;;;;;;29.55;36.23;99946.97;5030813;28;20025;-24
2021/06/08 10:36:34;;;;;;;9.85;6.68;;;;;;;29.47;37.11;99961.66;5030501;28;20032;-24
2021/06/08 10:39:00;;;;;;;8.27;6.10;;;;;;;29.55;37.24;99944.22;5030888;28;20037;-24
2021/06/08 10:41:27;;;;;;;6.97;5.10;;;;;;;29.41;36.15;99946.56;5029907;28;20028;-23
2021/06/08 10:43:52;;;;;;;6.47;5.13;;;;;;;29.20;37.21;99944.78;5031150;28;20037;-23
2021/06/08 10:46:23;;;;;;;7.20;5.50;;;;;;;29.32;36.61;99962.38;5029359;28;20425;-23
2021/06/08 10:48:49;;;;;;;8.30;6.28;;;;;;;29.29;37.34;99957.59;5030840;28;20044;-25
2021/06/08 10:51:17;;;;;;;7.53;6.00;;;;;;;29.26;37.43;99975.56;5013011;28;20045;-24
2021/06/08 10:53:45;;;;;;;12.35;6.53;;;;;;;29.62;38.12;99971.88;5030710;28;20049;-25
2021/06/08 10:56:33;;;;;;;8.88;5.05;;;;;;;29.53;38.03;99957.50;5012712;28;20026;-24
2021/06/08 10:59:03;;;;;;;6.93;5.13;;;;;;;29.30;40.37;99965.47;5030440;28;20026;-24
2021/06/08 11:01:34;;;;;;;10.23;5.10;;;;;;;28.09;42.74;99962.34;5030126;28;20025;-23
2021/06/08 11:04:00;;;;;;;9.05;5.50;;;;;;;27.21;42.93;99959.53;5030206;28;20038;-23
2021/06/08 11:06:44;;;;;;;6.97;5.38;;;;;;;26.85;44.03;99966.38;5030031;28;20583;-24
2021/06/08 11:09:15;;;;;;;8.45;5.70;;;;;;;26.54;44.85;99980.34;5030272;28;20121;-24
2021/06/08 11:11:52;;;;;;;7.68;6.43;;;;;;;26.49;45.11;99986.78;5030218;28;20029;-24
2021/06/08 11:14:30;;;;;;;;;;;;;;;26.36;45.96;99976.88;5030330;28;20080;-24
2021/06/08 11:16:58;;;;;;;9.05;6.30;;;;;;;25.94;45.36;99977.44;5030111;28;20015;-23